Time;durP1;ratioP1;P1;durP2;ratioP2;P2;SDS_P1;SDS_P2;PMS_P1;PMS_P2;Temp;Humidity;BMP_temperature;BMP_pressure;BME280_temperature;BME280_humidity;BME280_pressure;Samples;Min_cycle;Max_cycle;Signal;HPM_P1;HPM_P2
2023/12/30 00:09:04;;;;;;;;;;;;;;;6.51;100.00;98695.28;434624;1254;127567;-65
2023/12/30 00:19:09;;;;;;;;;;;;;;;6.60;100.00;98681.68;435233;1254;127474;-68
2023/12/30 00:29:13;;;;;;;;;;;;;;;6.59;100.00;98671.66;435327;1251;126271;-68
2023/12/30 00:39:18;;;;;;;;;;;;;;;6.46;100.00;98668.27;435941;1251;126604;-67
2023/12/30 00:49:22;;;;;;;;;;;;;;;6.34;100.00;98668.67;436108;1254;127410;-69
2023/12/30 00:59:27;;;;;;;;;;;;;;;6.19;100.00;98657.57;437501;1251;126170;-68
2023/12/30 01:09:31;;;;;;;;;;;;;;;6.18;100.00;98652.10;435435;1251;127077;-67
2023/12/30 01:19:36;;;;;;;;;;;;;;;6.26;100.00;98654.02;435655;1254;126433;-67
2023/12/30 01:29:40;;;;;;;;;;;;;;;6.25;100.00;98648.23;438788;1251;125700;-68
2023/12/30 01:39:45;;;;;;;;;;;;;;;6.32;100.00;98639.61;435002;1254;126792;-66
2023/12/30 01:49:49;;;;;;;;;;;;;;;6.43;100.00;98633.70;435213;1251;126193;-67
2023/12/30 01:59:54;;;;;;;;;;;;;;;6.56;100.00;98626.52;434997;1254;126081;-67
2023/12/30 02:09:58;;;;;;;;;;;;;;;6.70;100.00;98613.60;437013;1251;126516;-68
2023/12/30 02:20:04;;;;;;;;;;;;;;;6.80;100.00;98598.91;435179;1251;126522;-67
2023/12/30 02:30:09;;;;;;;;;;;;;;;6.90;100.00;98582.94;436561;1254;126108;-67
2023/12/30 02:40:14;;;;;;;;;;;;;;;7.02;100.00;98578.70;435136;1251;126807;-68
2023/12/30 02:50:18;;;;;;;;;;;;;;;7.11;100.00;98569.59;435610;1251;126101;-68
2023/12/30 03:00:23;;;;;;;;;;;;;;;7.26;100.00;98567.20;435224;1250;125865;-68
2023/12/30 03:10:28;;;;;;;;;;;;;;;7.38;100.00;98551.05;435768;1251;127481;-67
2023/12/30 03:20:32;;;;;;;;;;;;;;;7.50;100.00;98538.60;435317;1251;126209;-69
2023/12/30 03:30:37;;;;;;;;;;;;;;;7.61;100.00;98528.65;435194;1254;126028;-68
2023/12/30 03:40:41;;;;;;;;;;;;;;;7.66;100.00;98520.98;435623;1250;126273;-67
2023/12/30 03:50:46;;;;;;;;;;;;;;;7.69;100.00;98532.10;435750;1251;126591;-68
2023/12/30 04:00:50;;;;;;;;;;;;;;;7.67;100.00;98542.65;436039;1251;125873;-68
2023/12/30 04:10:54;;;;;;;;;;;;;;;7.65;100.00;98540.56;435826;1251;126311;-67
2023/12/30 04:20:59;;;;;;;;;;;;;;;7.66;100.00;98538.88;435406;1251;308901;-68
2023/12/30 04:31:04;;;;;;;;;;;;;;;7.69;100.00;98546.05;435718;1251;127013;-69
2023/12/30 04:41:09;;;;;;;;;;;;;;;7.71;100.00;98542.41;435325;1251;126700;-67
2023/12/30 04:51:13;;;;;;;;;;;;;;;7.74;100.00;98545.52;436299;1251;126643;-67
2023/12/30 05:01:18;;;;;;;;;;;;;;;7.75;100.00;98535.34;435266;1253;126323;-67
2023/12/30 05:11:23;;;;;;;;;;;;;;;7.75;100.00;98539.15;435213;1253;126858;-66
2023/12/30 05:21:28;;;;;;;;;;;;;;;7.75;100.00;98559.36;434922;1254;127188;-66
2023/12/30 05:31:32;;;;;;;;;;;;;;;7.60;100.00;98572.73;435047;1254;127490;-67
2023/12/30 05:41:39;;;;;;;;;;;;;;;7.47;100.00;98584.75;434952;1252;126971;-69
2023/12/30 05:51:44;;;;;;;;;;;;;;;7.40;100.00;98604.71;435006;1256;126326;-66
2023/12/30 06:01:48;;;;;;;;;;;;;;;7.36;100.00;98630.24;435535;1254;126916;-67
2023/12/30 06:11:53;;;;;;;;;;;;;;;7.26;100.00;98668.15;435170;1251;126787;-68
2023/12/30 06:21:57;;;;;;;;;;;;;;;6.96;100.00;98672.48;435086;1250;128939;-67
2023/12/30 06:32:02;;;;;;;;;;;;;;;6.46;100.00;98648.64;435634;1251;126106;-66
2023/12/30 06:42:07;;;;;;;;;;;;;;;5.99;100.00;98649.38;435351;1254;126424;-67
2023/12/30 06:52:12;;;;;;;;;;;;;;;5.54;100.00;98664.49;435513;1250;126691;-69
2023/12/30 07:02:16;;;;;;;;;;;;;;;5.38;100.00;98669.73;435508;1251;125911;-67
2023/12/30 07:12:20;;;;;;;;;;;;;;;5.13;100.00;98680.15;435398;1251;126498;-68
2023/12/30 07:22:25;;;;;;;;;;;;;;;5.10;100.00;98701.01;435408;1254;125989;-68
2023/12/30 07:32:29;;;;;;;;;;;;;;;5.31;100.00;98723.09;435096;1250;125905;-67
2023/12/30 07:42:35;;;;;;;;;;;;;;;5.39;100.00;98728.73;435882;1250;125835;-68
2023/12/30 07:52:39;;;;;;;;;;;;;;;5.52;100.00;98734.90;435451;1254;126786;-67
2023/12/30 08:02:44;;;;;;;;;;;;;;;5.60;100.00;98743.14;435539;1254;126887;-66
2023/12/30 08:12:49;;;;;;;;;;;;;;;5.67;100.00;98761.52;435708;1251;128014;-66
2023/12/30 08:22:54;;;;;;;;;;;;;;;5.60;100.00;98782.76;435652;1250;126365;-67
2023/12/30 08:33:03;;;;;;;;;;;;;;;5.39;100.00;98805.61;435305;1254;126081;-67
2023/12/30 08:43:08;;;;;;;;;;;;;;;5.24;100.00;98825.64;436105;1250;125815;-68
2023/12/30 08:53:13;;;;;;;;;;;;;;;5.10;100.00;98769.36;434925;1253;126307;-66
2023/12/30 09:03:17;;;;;;;;;;;;;;;5.03;100.00;98754.27;435471;1250;125985;-67
2023/12/30 09:13:23;;;;;;;;;;;;;;;5.08;100.00;98792.34;436441;1251;127450;-66
2023/12/30 09:23:28;;;;;;;;;;;;;;;5.20;100.00;98802.44;435240;1254;126702;-68
2023/12/30 09:33:32;;;;;;;;;;;;;;;5.40;100.00;98820.31;435055;1251;125894;-67
2023/12/30 09:43:37;;;;;;;;;;;;;;;5.39;100.00;98834.79;435089;1250;125980;-67
2023/12/30 09:53:42;;;;;;;;;;;;;;;5.41;100.00;98839.20;435361;1250;127053;-67
2023/12/30 10:03:47;;;;;;;;;;;;;;;5.36;100.00;98843.58;435608;1254;130721;-64
2023/12/30 10:13:54;;;;;;;;;;;;;;;5.36;100.00;98871.54;436077;1250;127600;-64
2023/12/30 10:24:03;;;;;;;;;;;;;;;5.35;100.00;98875.06;436325;1254;127980;-65
2023/12/30 10:34:08;;;;;;;;;;;;;;;5.35;100.00;98890.17;435098;1254;127483;-64
2023/12/30 10:44:13;;;;;;;;;;;;;;;5.29;100.00;98890.48;439266;1254;126969;-69
2023/12/30 10:54:21;;;;;;;;;;;;;;;5.13;100.00;98897.41;435749;1250;126718;-65
2023/12/30 11:04:26;;;;;;;;;;;;;;;4.98;100.00;98906.66;435494;1254;126952;-65
2023/12/30 11:14:31;;;;;;;;;;;;;;;4.83;100.00;98924.95;435868;1254;126322;-65
2023/12/30 11:24:35;;;;;;;;;;;;;;;4.77;100.00;98929.43;435033;1251;126301;-64
2023/12/30 11:34:40;;;;;;;;;;;;;;;4.71;100.00;98942.17;435059;1255;125920;-64
2023/12/30 11:44:44;;;;;;;;;;;;;;;4.68;100.00;98955.70;434842;1252;125815;-63
2023/12/30 11:54:50;;;;;;;;;;;;;;;4.61;100.00;98964.67;434959;1254;125549;-65
2023/12/30 12:04:55;;;;;;;;;;;;;;;4.55;100.00;98974.17;434730;1250;126014;-68
2023/12/30 12:14:59;;;;;;;;;;;;;;;4.51;100.00;98974.36;435230;1251;126586;-71
2023/12/30 12:25:04;;;;;;;;;;;;;;;4.48;100.00;98985.23;435814;1250;125679;-71
2023/12/30 12:35:09;;;;;;;;;;;;;;;4.47;100.00;98993.64;437678;1254;126645;-71
2023/12/30 12:45:14;;;;;;;;;;;;;;;4.45;100.00;98993.41;435736;1256;127569;-71
2023/12/30 12:55:18;;;;;;;;;;;;;;;4.24;100.00;98992.45;435438;1251;125553;-71
2023/12/30 13:05:23;;;;;;;;;;;;;;;4.02;100.00;99003.87;435417;1255;128109;-71
2023/12/30 13:15:27;;;;;;;;;;;;;;;4.07;100.00;99008.84;435075;1251;126653;-66
2023/12/30 13:25:32;;;;;;;;;;;;;;;4.06;100.00;99019.81;437112;1250;126211;-72
2023/12/30 13:35:38;;;;;;;;;;;;;;;3.89;100.00;99034.29;434913;1256;126129;-74
2023/12/30 13:45:45;;;;;;;;;;;;;;;3.82;100.00;99044.77;434832;1251;125845;-67
2023/12/30 13:55:51;;;;;;;;;;;;;;;3.96;100.00;99050.06;435198;1251;125865;-67
2023/12/30 14:05:56;;;;;;;;;;;;;;;4.08;100.00;99053.34;435771;1255;126571;-64
2023/12/30 14:16:00;;;;;;;;;;;;;;;4.18;100.00;99055.45;435031;1254;125968;-61
2023/12/30 14:26:05;;;;;;;;;;;;;;;4.25;100.00;99058.29;435137;1255;126175;-62
2023/12/30 14:36:11;;;;;;;;;;;;;;;4.30;100.00;99064.11;435227;1251;127016;-63
2023/12/30 14:46:15;;;;;;;;;;;;;;;4.33;100.00;99069.48;435183;1256;126839;-63
2023/12/30 14:56:22;;;;;;;;;;;;;;;4.33;100.00;99076.23;434855;1251;126839;-63
2023/12/30 15:06:28;;;;;;;;;;;;;;;4.33;100.00;99087.04;434816;1254;125915;-64
2023/12/30 15:16:33;;;;;;;;;;;;;;;4.29;100.00;99100.17;435532;1254;127026;-63
2023/12/30 15:26:38;;;;;;;;;;;;;;;4.28;100.00;99116.02;435880;1255;126510;-63
2023/12/30 15:36:42;;;;;;;;;;;;;;;4.24;100.00;99126.05;435450;1256;125414;-63
2023/12/30 15:46:47;;;;;;;;;;;;;;;4.20;100.00;99143.23;435621;1255;125973;-69
2023/12/30 15:56:52;;;;;;;;;;;;;;;4.15;100.00;99153.48;435390;1256;126924;-64
2023/12/30 16:06:56;;;;;;;;;;;;;;;4.12;100.00;99150.33;435907;1256;127240;-63
2023/12/30 16:17:01;;;;;;;;;;;;;;;4.05;100.00;99147.36;435592;1256;316584;-64
2023/12/30 16:27:05;;;;;;;;;;;;;;;3.94;100.00;99152.84;436124;1256;125877;-63
2023/12/30 16:37:10;;;;;;;;;;;;;;;3.88;100.00;99155.54;435534;1256;126540;-63
2023/12/30 16:47:14;;;;;;;;;;;;;;;3.72;100.00;99158.47;435616;1256;126814;-62
2023/12/30 16:57:19;;;;;;;;;;;;;;;3.69;100.00;99162.03;435571;1254;126710;-64
2023/12/30 17:07:23;;;;;;;;;;;;;;;3.74;100.00;99161.16;435352;1256;125469;-63
2023/12/30 17:17:28;;;;;;;;;;;;;;;3.80;100.00;99175.59;435036;1256;126150;-73
2023/12/30 17:27:32;;;;;;;;;;;;;;;3.89;100.00;99178.17;434995;1255;126865;-61
2023/12/30 17:37:37;;;;;;;;;;;;;;;3.95;100.00;99184.13;435561;1256;126303;-64
2023/12/30 17:47:42;;;;;;;;;;;;;;;3.99;100.00;99188.11;435091;1254;126434;-64
2023/12/30 17:57:47;;;;;;;;;;;;;;;3.92;100.00;99191.72;435199;1256;127003;-64
2023/12/30 18:07:51;;;;;;;;;;;;;;;3.70;100.00;99197.85;435252;1253;126752;-66
2023/12/30 18:17:56;;;;;;;;;;;;;;;3.54;100.00;99211.83;436134;1254;126056;-66
2023/12/30 18:28:01;;;;;;;;;;;;;;;3.51;100.00;99231.86;436435;1254;125967;-66
2023/12/30 18:38:06;;;;;;;;;;;;;;;3.52;100.00;99232.16;435632;1254;126120;-67
2023/12/30 18:48:10;;;;;;;;;;;;;;;3.52;100.00;99235.80;435504;1251;127370;-66
2023/12/30 18:58:18;;;;;;;;;;;;;;;3.53;100.00;99234.55;435312;1254;126650;-65
2023/12/30 19:08:23;;;;;;;;;;;;;;;3.51;100.00;99242.58;435365;1251;127022;-65
2023/12/30 19:18:27;;;;;;;;;;;;;;;3.52;100.00;99244.43;435643;1251;125659;-67
2023/12/30 19:28:32;;;;;;;;;;;;;;;3.54;100.00;99249.76;435861;1254;126643;-66
2023/12/30 19:38:36;;;;;;;;;;;;;;;3.52;100.00;99253.61;435619;1254;125847;-66
2023/12/30 19:48:41;;;;;;;;;;;;;;;3.47;100.00;99255.55;436190;1254;126067;-66
2023/12/30 19:58:45;;;;;;;;;;;;;;;3.40;100.00;99263.27;435787;1251;125989;-67
2023/12/30 20:08:50;;;;;;;;;;;;;;;3.36;100.00;99263.06;435584;1254;127269;-66
2023/12/30 20:18:54;;;;;;;;;;;;;;;3.34;100.00;99255.52;435995;1254;126857;-66
2023/12/30 20:28:58;;;;;;;;;;;;;;;3.34;100.00;99267.11;436292;1251;125725;-66
2023/12/30 20:39:05;;;;;;;;;;;;;;;3.30;100.00;99255.35;435707;1254;125802;-66
2023/12/30 20:49:09;;;;;;;;;;;;;;;3.19;100.00;99262.86;435827;1251;126454;-66
2023/12/30 20:59:19;;;;;;;;;;;;;;;3.12;100.00;99269.55;435484;1251;125878;-66
2023/12/30 21:09:25;;;;;;;;;;;;;;;3.09;100.00;99279.67;437635;1254;126184;-66
2023/12/30 21:19:31;;;;;;;;;;;;;;;3.06;100.00;99289.81;435642;1252;125898;-66
2023/12/30 21:29:36;;;;;;;;;;;;;;;3.04;100.00;99296.43;435650;1251;125605;-66
2023/12/30 21:39:41;;;;;;;;;;;;;;;3.02;100.00;99300.69;435414;1251;127577;-66
2023/12/30 21:49:45;;;;;;;;;;;;;;;2.98;100.00;99315.70;440409;1251;125411;-66
2023/12/30 21:59:49;;;;;;;;;;;;;;;2.94;100.00;99323.48;435803;1251;125523;-66
2023/12/30 22:09:54;;;;;;;;;;;;;;;2.87;100.00;99325.98;436138;1251;125524;-66
2023/12/30 22:19:59;;;;;;;;;;;;;;;2.81;100.00;99333.60;436621;1254;126117;-66
2023/12/30 22:30:04;;;;;;;;;;;;;;;2.76;100.00;99347.10;436755;1254;125873;-66
2023/12/30 22:40:10;;;;;;;;;;;;;;;2.70;100.00;99349.90;436152;1251;126152;-65
2023/12/30 22:50:14;;;;;;;;;;;;;;;2.64;100.00;99351.48;438419;1250;126560;-66
2023/12/30 23:00:26;;;;;;;;;;;;;;;2.62;100.00;99350.68;436080;1251;127357;-67
2023/12/30 23:10:30;;;;;;;;;;;;;;;2.59;100.00;99347.88;436522;1254;127347;-65
2023/12/30 23:20:35;;;;;;;;;;;;;;;2.55;100.00;99350.60;435536;1251;127595;-66
2023/12/30 23:30:39;;;;;;;;;;;;;;;2.52;100.00;99353.97;435858;1254;126690;-66
2023/12/30 23:40:44;;;;;;;;;;;;;;;2.37;100.00;99350.36;437563;1254;126617;-65
2023/12/30 23:50:48;;;;;;;;;;;;;;;2.03;100.00;99347.30;436549;1253;127530;-66
